createdAt,value
2018-05-06T00:00:26.729Z,14.73
2018-05-06T00:01:26.803Z,14.78
2018-05-06T00:03:19.664Z,14.70
2018-05-06T00:04:19.603Z,14.72
2018-05-06T00:06:12.463Z,14.65
2018-05-06T00:07:12.414Z,14.70
2018-05-06T00:09:05.406Z,14.77
2018-05-06T00:10:05.355Z,14.68
2018-05-06T00:11:58.308Z,14.63
2018-05-06T00:12:58.366Z,14.69
2018-05-06T00:14:51.497Z,14.69
2018-05-06T00:15:51.370Z,14.60
2018-05-06T00:17:44.364Z,14.70
2018-05-06T00:18:44.321Z,14.54
2018-05-06T00:20:37.315Z,14.59
2018-05-06T00:21:37.251Z,14.48
2018-05-06T00:23:30.324Z,14.37
2018-05-06T00:24:30.153Z,14.37
2018-05-06T00:26:23.150Z,14.37
2018-05-06T00:27:23.101Z,14.32
2018-05-06T00:29:16.071Z,14.28
2018-05-06T00:30:16.039Z,14.22
2018-05-06T00:32:09.236Z,14.23
2018-05-06T00:33:09.167Z,14.18
2018-05-06T00:35:01.921Z,14.17
2018-05-06T00:36:01.855Z,14.11
2018-05-06T00:37:54.804Z,14.03
2018-05-06T00:38:54.894Z,13.87
2018-05-06T00:40:47.831Z,13.96
2018-05-06T00:41:47.792Z,13.92
2018-05-06T00:43:40.736Z,13.93
2018-05-06T00:44:40.694Z,13.78
2018-05-06T00:46:33.668Z,13.77
2018-05-06T00:47:33.610Z,13.78
2018-05-06T00:49:26.550Z,13.74
2018-05-06T00:50:26.513Z,13.67
2018-05-06T00:52:19.708Z,13.74
2018-05-06T00:53:19.657Z,13.78
2018-05-06T00:55:12.484Z,13.74
2018-05-06T00:56:12.430Z,13.67
2018-05-06T00:58:05.369Z,13.65
2018-05-06T00:59:05.335Z,13.63
2018-05-06T01:00:58.435Z,13.60
2018-05-06T01:01:58.358Z,13.46
2018-05-06T01:03:51.281Z,13.38
2018-05-06T01:04:51.239Z,13.41
2018-05-06T01:06:44.256Z,13.27
2018-05-06T01:07:44.184Z,13.30
2018-05-06T01:09:37.246Z,13.23
2018-05-06T01:10:37.215Z,13.22
2018-05-06T01:12:30.033Z,13.16
2018-05-06T01:13:29.971Z,13.19
2018-05-06T01:15:22.941Z,13.18
2018-05-06T01:16:22.999Z,13.20
2018-05-06T01:18:16.064Z,13.12
2018-05-06T01:19:16.020Z,13.13
2018-05-06T01:21:08.995Z,13.09
2018-05-06T01:22:08.951Z,13.01
2018-05-06T01:24:01.794Z,13.03
2018-05-06T01:25:01.809Z,12.95
2018-05-06T01:26:55.020Z,13.00
2018-05-06T01:27:54.841Z,13.00
2018-05-06T01:29:48.064Z,12.98
2018-05-06T01:30:48.053Z,12.94
2018-05-06T01:32:40.823Z,12.91
2018-05-06T01:33:40.763Z,12.85
2018-05-06T01:35:33.616Z,12.90
2018-05-06T01:36:33.586Z,12.86
2018-05-06T01:38:26.506Z,12.83
2018-05-06T01:39:26.356Z,12.76
2018-05-06T01:41:19.313Z,12.78
2018-05-06T01:42:19.273Z,12.73
2018-05-06T01:44:12.200Z,12.73
2018-05-06T01:45:12.117Z,12.72
2018-05-06T01:47:05.306Z,12.68
2018-05-06T01:48:05.141Z,12.73
2018-05-06T01:49:58.112Z,12.58
2018-05-06T01:50:58.105Z,12.67
2018-05-06T01:52:51.051Z,12.65
2018-05-06T01:53:51.017Z,12.67
2018-05-06T01:55:43.818Z,12.75
2018-05-06T01:56:43.755Z,12.65
2018-05-06T01:58:36.852Z,12.61
2018-05-06T01:59:36.754Z,12.65
2018-05-06T02:01:29.716Z,12.68
2018-05-06T02:02:29.676Z,12.53
2018-05-06T02:04:22.663Z,12.50
2018-05-06T02:05:22.611Z,12.47
2018-05-06T02:07:15.594Z,12.45
2018-05-06T02:08:15.442Z,12.36
2018-05-06T02:10:08.411Z,12.39
2018-05-06T02:11:08.339Z,12.40
2018-05-06T02:13:01.296Z,12.35
2018-05-06T02:14:01.336Z,12.24
2018-05-06T02:15:54.089Z,12.32
2018-05-06T02:16:54.032Z,12.25
2018-05-06T02:18:46.943Z,12.20
2018-05-06T02:19:46.887Z,12.24
2018-05-06T02:21:39.876Z,12.20
2018-05-06T02:22:39.837Z,12.22
2018-05-06T02:24:32.803Z,12.10
2018-05-06T02:25:32.743Z,12.06
2018-05-06T02:27:25.992Z,12.03
2018-05-06T02:28:25.858Z,12.09
2018-05-06T02:30:18.829Z,11.97
2018-05-06T02:31:18.782Z,11.95
2018-05-06T02:33:11.739Z,11.88
2018-05-06T02:34:11.704Z,11.91
2018-05-06T02:36:04.561Z,11.84
2018-05-06T02:37:04.493Z,11.80
2018-05-06T02:38:57.458Z,11.81
2018-05-06T02:39:57.263Z,11.78
2018-05-06T02:41:50.200Z,11.72
2018-05-06T02:42:50.158Z,11.75
2018-05-06T02:44:43.163Z,11.75
2018-05-06T02:45:43.157Z,11.68
2018-05-06T02:47:36.342Z,11.65
2018-05-06T02:48:36.219Z,11.65
2018-05-06T02:50:29.193Z,11.68
2018-05-06T02:51:29.152Z,11.60
2018-05-06T02:53:22.099Z,11.55
2018-05-06T02:54:22.035Z,11.59
2018-05-06T02:56:14.959Z,11.52
2018-05-06T02:57:14.817Z,11.52
2018-05-06T02:59:07.924Z,11.45
2018-05-06T03:00:07.805Z,11.55
2018-05-06T03:02:00.777Z,11.47
2018-05-06T03:03:00.729Z,11.45
2018-05-06T03:04:53.919Z,11.45
2018-05-06T03:05:53.881Z,11.44
2018-05-06T03:07:46.848Z,11.45
2018-05-06T03:08:46.794Z,11.41
2018-05-06T03:10:39.900Z,11.45
2018-05-06T03:11:39.864Z,11.30
2018-05-06T03:13:32.825Z,11.32
2018-05-06T03:14:32.635Z,11.27
2018-05-06T03:16:25.585Z,11.30
2018-05-06T03:17:25.545Z,11.19
2018-05-06T03:19:18.580Z,11.23
2018-05-06T03:20:18.623Z,11.25
2018-05-06T03:22:11.759Z,11.22
2018-05-06T03:23:11.619Z,11.29
2018-05-06T03:25:04.570Z,11.18
2018-05-06T03:26:04.538Z,11.25
2018-05-06T03:27:57.516Z,11.11
2018-05-06T03:28:57.464Z,11.22
2018-05-06T03:30:50.363Z,11.17
2018-05-06T03:31:50.325Z,11.19
2018-05-06T03:33:43.299Z,11.18
2018-05-06T03:34:43.244Z,11.14
2018-05-06T03:36:36.189Z,11.14
2018-05-06T03:37:36.155Z,11.11
2018-05-06T03:39:28.983Z,11.22
2018-05-06T03:40:28.918Z,11.08
2018-05-06T03:42:23.368Z,11.07
2018-05-06T03:43:21.844Z,11.10
2018-05-06T03:45:15.740Z,11.10
2018-05-06T03:46:14.614Z,11.12
2018-05-06T03:48:07.436Z,11.11
2018-05-06T03:49:07.383Z,11.10
2018-05-06T03:51:00.321Z,10.94
2018-05-06T03:52:00.306Z,10.99
2018-05-06T03:53:53.376Z,11.05
2018-05-06T03:54:53.305Z,10.97
2018-05-06T03:56:46.256Z,11.08
2018-05-06T03:57:46.214Z,10.97
2018-05-06T03:59:39.189Z,10.93
2018-05-06T04:00:39.274Z,11.04
2018-05-06T04:02:32.134Z,10.97
2018-05-06T04:03:32.105Z,10.84
2018-05-06T04:05:25.049Z,10.87
2018-05-06T04:06:24.865Z,10.94
2018-05-06T04:08:17.894Z,10.90
2018-05-06T04:09:17.823Z,10.92
2018-05-06T04:11:10.824Z,10.87
2018-05-06T04:12:10.779Z,10.92
2018-05-06T04:14:03.655Z,10.89
2018-05-06T04:15:03.587Z,10.89
2018-05-06T04:16:56.535Z,10.89
2018-05-06T04:17:56.495Z,10.84
2018-05-06T04:19:49.619Z,10.82
2018-05-06T04:20:49.579Z,10.75
2018-05-06T04:22:42.800Z,10.87
2018-05-06T04:23:42.660Z,10.76
2018-05-06T04:25:35.617Z,10.78
2018-05-06T04:26:35.570Z,10.75
2018-05-06T04:28:28.480Z,10.79
2018-05-06T04:29:28.405Z,10.79
2018-05-06T04:31:21.667Z,10.84
2018-05-06T04:32:21.454Z,10.84
2018-05-06T04:34:14.391Z,10.74
2018-05-06T04:35:14.351Z,10.68
2018-05-06T04:37:07.322Z,10.64
2018-05-06T04:38:07.275Z,10.68
2018-05-06T04:40:00.490Z,10.67
2018-05-06T04:41:00.360Z,10.68
2018-05-06T04:42:53.315Z,10.79
2018-05-06T04:43:53.262Z,10.79
2018-05-06T04:45:46.707Z,10.79
2018-05-06T04:46:46.205Z,10.74
2018-05-06T04:48:39.028Z,10.84
2018-05-06T04:49:38.969Z,10.81
2018-05-06T04:51:32.020Z,10.86
2018-05-06T04:52:31.992Z,10.84
2018-05-06T04:54:24.893Z,10.92
2018-05-06T04:55:24.843Z,10.89
2018-05-06T04:57:17.811Z,10.99
2018-05-06T04:58:17.771Z,10.94
2018-05-06T05:00:10.638Z,11.07
2018-05-06T05:01:10.575Z,11.02
2018-05-06T05:03:03.540Z,11.11
2018-05-06T05:04:03.481Z,11.14
2018-05-06T05:05:56.291Z,11.23
2018-05-06T05:06:56.266Z,11.26
2018-05-06T05:08:49.090Z,11.33
2018-05-06T05:09:49.100Z,11.47
2018-05-06T05:11:42.333Z,11.41
2018-05-06T05:12:42.142Z,11.50
2018-05-06T05:14:35.115Z,11.59
2018-05-06T05:15:35.066Z,11.66
2018-05-06T05:17:28.026Z,11.69
2018-05-06T05:18:28.007Z,11.73
2018-05-06T05:20:20.791Z,11.77
2018-05-06T05:21:20.735Z,11.78
2018-05-06T05:23:15.181Z,11.86
2018-05-06T05:24:13.511Z,11.97
2018-05-06T05:26:06.407Z,11.97
2018-05-06T05:27:06.297Z,12.00
2018-05-06T05:28:59.260Z,12.00
2018-05-06T05:29:59.206Z,12.07
2018-05-06T05:31:52.150Z,12.18
2018-05-06T05:32:52.116Z,12.20
2018-05-06T05:34:44.941Z,12.27
2018-05-06T05:35:44.902Z,12.25
2018-05-06T05:37:37.926Z,12.35
2018-05-06T05:38:37.866Z,12.40
2018-05-06T05:40:30.815Z,12.49
2018-05-06T05:41:30.756Z,12.45
2018-05-06T05:43:23.742Z,12.49
2018-05-06T05:44:23.681Z,12.62
2018-05-06T05:46:16.570Z,12.65
2018-05-06T05:47:16.527Z,12.62
2018-05-06T05:49:09.410Z,12.61
2018-05-06T05:50:09.313Z,12.64
2018-05-06T05:52:02.264Z,12.67
2018-05-06T05:53:02.212Z,12.79
2018-05-06T05:54:55.153Z,12.76
2018-05-06T05:55:55.124Z,12.93
2018-05-06T05:57:48.266Z,13.01
2018-05-06T05:58:48.031Z,13.00
2018-05-06T06:00:40.982Z,13.12
2018-05-06T06:01:40.955Z,13.03
2018-05-06T06:03:33.917Z,13.18
2018-05-06T06:04:33.955Z,13.18
2018-05-06T06:06:26.861Z,13.18
2018-05-06T06:07:26.817Z,13.25
2018-05-06T06:09:19.732Z,13.31
2018-05-06T06:10:19.596Z,13.31
2018-05-06T06:12:12.562Z,13.47
2018-05-06T06:13:12.515Z,13.59
2018-05-06T06:15:07.467Z,13.59
2018-05-06T06:16:05.442Z,13.67
2018-05-06T06:17:58.549Z,13.70
2018-05-06T06:18:58.324Z,13.77
2018-05-06T06:20:51.181Z,13.78
2018-05-06T06:21:51.115Z,13.87
2018-05-06T06:23:44.085Z,13.77
2018-05-06T06:24:44.034Z,13.78
2018-05-06T06:26:36.979Z,13.95
2018-05-06T06:27:36.944Z,14.03
2018-05-06T06:29:29.821Z,14.05
2018-05-06T06:30:29.758Z,14.10
2018-05-06T06:32:22.712Z,14.18
2018-05-06T06:33:22.680Z,14.26
2018-05-06T06:35:16.310Z,14.28
2018-05-06T06:36:15.444Z,14.32
2018-05-06T06:38:08.390Z,14.40
2018-05-06T06:39:08.355Z,14.47
2018-05-06T06:41:01.572Z,14.53
2018-05-06T06:42:01.463Z,14.54
2018-05-06T06:43:54.420Z,14.62
2018-05-06T06:44:54.388Z,14.63
2018-05-06T06:46:47.347Z,14.66
2018-05-06T06:47:47.289Z,14.77
2018-05-06T06:49:40.349Z,14.78
2018-05-06T06:50:40.235Z,14.79
2018-05-06T06:52:33.204Z,14.82
2018-05-06T06:53:33.142Z,14.86
2018-05-06T06:55:26.128Z,15.00
2018-05-06T06:56:26.094Z,15.00
2018-05-06T06:58:19.242Z,15.06
2018-05-06T06:59:19.198Z,15.09
2018-05-06T07:01:12.159Z,15.18
2018-05-06T07:02:12.118Z,15.22
2018-05-06T07:04:05.120Z,15.31
2018-05-06T07:05:05.054Z,15.28
2018-05-06T07:06:57.898Z,15.25
2018-05-06T07:07:57.855Z,15.46
2018-05-06T07:09:50.802Z,15.44
2018-05-06T07:10:50.773Z,15.55
2018-05-06T07:12:43.749Z,15.64
2018-05-06T07:13:43.800Z,15.65
2018-05-06T07:15:36.520Z,15.75
2018-05-06T07:16:36.486Z,15.79
2018-05-06T07:18:29.338Z,15.88
2018-05-06T07:19:29.281Z,15.91
2018-05-06T07:21:22.299Z,16.00
2018-05-06T07:22:22.213Z,15.97
2018-05-06T07:24:15.180Z,16.10
2018-05-06T07:25:15.250Z,16.21
2018-05-06T07:27:08.480Z,16.16
2018-05-06T07:28:08.269Z,16.28
2018-05-06T07:30:01.255Z,16.46
2018-05-06T07:31:01.168Z,16.46
2018-05-06T07:32:54.169Z,16.43
2018-05-06T07:33:54.108Z,16.61
2018-05-06T07:35:47.119Z,16.61
2018-05-06T07:36:47.000Z,16.68
2018-05-06T07:38:39.998Z,16.76
2018-05-06T07:39:39.980Z,16.71
2018-05-06T07:41:33.012Z,16.78
2018-05-06T07:42:32.889Z,16.90
2018-05-06T07:44:26.069Z,16.90
2018-05-06T07:45:26.025Z,16.93
2018-05-06T07:47:19.029Z,16.93
2018-05-06T07:48:19.000Z,16.93
2018-05-06T07:50:11.936Z,17.01
2018-05-06T07:51:11.904Z,17.11
2018-05-06T07:53:04.825Z,17.15
2018-05-06T07:54:04.765Z,17.24
2018-05-06T07:55:57.648Z,17.29
2018-05-06T07:56:57.558Z,17.33
2018-05-06T07:58:50.735Z,17.39
2018-05-06T07:59:50.553Z,17.36
2018-05-06T08:01:43.670Z,17.42
2018-05-06T08:02:43.646Z,17.46
2018-05-06T08:04:36.615Z,17.56
2018-05-06T08:05:36.567Z,17.65
2018-05-06T08:07:29.576Z,17.74
2018-05-06T08:08:29.557Z,17.74
2018-05-06T08:10:22.696Z,17.80
2018-05-06T08:11:22.637Z,17.80
2018-05-06T08:13:15.621Z,17.85
2018-05-06T08:14:15.574Z,17.86
2018-05-06T08:16:08.425Z,17.94
2018-05-06T08:17:08.374Z,17.95
2018-05-06T08:19:01.604Z,18.13
2018-05-06T08:20:01.498Z,18.10
2018-05-06T08:21:54.513Z,18.10
2018-05-06T08:22:54.440Z,18.10
2018-05-06T08:24:47.440Z,18.33
2018-05-06T08:25:47.395Z,18.29
2018-05-06T08:27:40.454Z,18.34
2018-05-06T08:28:40.392Z,18.33
2018-05-06T08:30:33.232Z,18.45
2018-05-06T08:31:33.175Z,18.47
2018-05-06T08:33:26.134Z,18.62
2018-05-06T08:34:26.090Z,18.59
2018-05-06T08:36:18.923Z,18.73
2018-05-06T08:37:18.868Z,18.74
2018-05-06T08:39:11.717Z,18.78
2018-05-06T08:40:11.671Z,18.80
2018-05-06T08:42:04.574Z,18.96
2018-05-06T08:43:04.437Z,18.95
2018-05-06T08:44:57.722Z,19.07
2018-05-06T08:45:57.656Z,19.04
2018-05-06T08:47:50.541Z,19.09
2018-05-06T08:48:50.514Z,19.16
2018-05-06T08:50:48.971Z,19.21
2018-05-06T08:51:43.483Z,19.24
2018-05-06T08:53:36.274Z,19.24
2018-05-06T08:54:36.240Z,19.33
2018-05-06T08:56:29.179Z,19.36
2018-05-06T08:57:29.233Z,19.40
2018-05-06T08:59:22.301Z,19.41
2018-05-06T09:00:22.215Z,19.55
2018-05-06T09:02:15.173Z,19.59
2018-05-06T09:03:15.124Z,19.58
2018-05-06T09:05:07.951Z,19.69
2018-05-06T09:06:07.961Z,19.67
2018-05-06T09:08:00.875Z,19.63
2018-05-06T09:09:00.843Z,19.64
2018-05-06T09:10:53.859Z,19.59
2018-05-06T09:11:53.732Z,19.62
2018-05-06T09:13:46.743Z,19.71
2018-05-06T09:14:46.710Z,19.85
2018-05-06T09:16:39.942Z,19.86
2018-05-06T09:17:39.833Z,19.99
2018-05-06T09:19:32.838Z,20.06
2018-05-06T09:20:32.796Z,20.14
2018-05-06T09:22:25.592Z,20.22
2018-05-06T09:23:25.568Z,20.19
2018-05-06T09:25:18.898Z,20.36
2018-05-06T09:26:18.688Z,20.39
2018-05-06T09:28:11.649Z,20.51
2018-05-06T09:29:11.640Z,20.51
2018-05-06T09:31:04.597Z,20.60
2018-05-06T09:32:04.544Z,20.65
2018-05-06T09:33:57.731Z,20.78
2018-05-06T09:34:57.655Z,20.85
2018-05-06T09:36:50.657Z,21.02
2018-05-06T09:37:50.591Z,21.03
2018-05-06T09:39:43.583Z,21.09
2018-05-06T09:40:43.563Z,21.07
2018-05-06T09:42:36.582Z,21.20
2018-05-06T09:43:36.492Z,20.92
2018-05-06T09:45:29.467Z,21.05
2018-05-06T09:46:29.434Z,21.03
2018-05-06T09:48:22.776Z,21.18
2018-05-06T09:49:22.696Z,21.36
2018-05-06T09:51:15.663Z,21.17
2018-05-06T09:52:15.620Z,21.32
2018-05-06T09:54:08.565Z,21.51
2018-05-06T09:55:08.537Z,21.33
2018-05-06T09:57:01.656Z,21.58
2018-05-06T09:58:01.598Z,21.88
2018-05-06T09:59:54.580Z,22.75
2018-05-06T10:00:54.663Z,23.54
2018-05-06T10:02:50.974Z,24.65
2018-05-06T10:03:47.693Z,25.10
2018-05-06T10:05:40.610Z,26.18
2018-05-06T10:06:40.499Z,26.75
2018-05-06T10:08:33.474Z,27.65
2018-05-06T10:09:33.446Z,27.93
2018-05-06T10:11:26.657Z,28.23
2018-05-06T10:12:26.612Z,28.30
2018-05-06T10:14:19.638Z,28.67
2018-05-06T10:15:19.748Z,29.22
2018-05-06T10:17:12.574Z,28.29
2018-05-06T10:18:12.556Z,28.96
2018-05-06T10:20:05.628Z,30.25
2018-05-06T10:21:05.386Z,30.70
2018-05-06T10:22:58.393Z,28.79
2018-05-06T10:23:58.364Z,29.01
2018-05-06T10:25:51.358Z,29.57
2018-05-06T10:26:51.324Z,30.47
2018-05-06T10:28:44.192Z,31.64
2018-05-06T10:29:44.164Z,31.89
2018-05-06T10:31:37.141Z,32.18
2018-05-06T10:32:37.139Z,32.51
2018-05-06T10:34:30.126Z,32.87
2018-05-06T10:35:30.094Z,33.04
2018-05-06T10:37:22.932Z,33.39
2018-05-06T10:38:23.006Z,31.97
2018-05-06T10:40:15.933Z,31.54
2018-05-06T10:41:15.921Z,31.64
2018-05-06T10:43:08.920Z,32.49
2018-05-06T10:44:09.007Z,32.93
2018-05-06T10:46:02.165Z,33.57
2018-05-06T10:47:02.009Z,33.76
2018-05-06T10:48:54.985Z,33.94
2018-05-06T10:49:54.969Z,34.17
2018-05-06T10:51:48.015Z,34.06
2018-05-06T10:52:47.934Z,34.38
2018-05-06T10:54:41.041Z,33.52
2018-05-06T10:55:40.809Z,33.87
2018-05-06T10:57:33.789Z,34.47
2018-05-06T10:58:33.775Z,34.64
2018-05-06T11:00:26.782Z,35.33
2018-05-06T11:01:26.770Z,35.53
2018-05-06T11:03:19.610Z,33.43
2018-05-06T11:04:19.576Z,32.89
2018-05-06T11:06:12.484Z,34.03
2018-05-06T11:07:12.416Z,34.73
2018-05-06T11:09:05.414Z,35.37
2018-05-06T11:10:05.583Z,35.66
2018-05-06T11:11:58.594Z,35.78
2018-05-06T11:12:58.549Z,35.74
2018-05-06T11:14:51.593Z,35.36
2018-05-06T11:15:51.557Z,35.64
2018-05-06T11:17:44.524Z,35.51
2018-05-06T11:18:44.525Z,35.74
2018-05-06T11:20:37.585Z,36.16
2018-05-06T11:21:37.549Z,35.80
2018-05-06T11:23:30.558Z,33.47
2018-05-06T11:24:30.598Z,33.28
2018-05-06T11:26:23.824Z,33.58
2018-05-06T11:27:23.702Z,33.84
2018-05-06T11:29:16.726Z,34.29
2018-05-06T11:30:16.820Z,34.75
2018-05-06T11:32:10.020Z,34.43
2018-05-06T11:33:09.914Z,34.77
2018-05-06T11:35:02.955Z,34.83
2018-05-06T11:36:02.910Z,35.00
2018-05-06T11:37:56.249Z,34.74
2018-05-06T11:38:56.076Z,35.36
2018-05-06T11:40:49.109Z,36.05
2018-05-06T11:41:49.082Z,35.33
2018-05-06T11:43:42.080Z,35.93
2018-05-06T11:44:42.062Z,36.12
2018-05-06T11:46:35.144Z,36.77
2018-05-06T11:47:35.054Z,36.51
2018-05-06T11:49:27.886Z,36.16
2018-05-06T11:50:27.866Z,36.30
2018-05-06T11:52:20.933Z,36.58
2018-05-06T11:53:20.900Z,36.79
2018-05-06T11:55:13.744Z,36.51
2018-05-06T11:56:13.815Z,36.12
2018-05-06T11:58:08.723Z,36.17
2018-05-06T11:59:06.726Z,36.49
2018-05-06T12:00:59.699Z,36.47
2018-05-06T12:01:59.697Z,36.58
2018-05-06T12:03:53.830Z,37.17
2018-05-06T12:04:53.717Z,37.49
2018-05-06T12:06:46.768Z,37.90
2018-05-06T12:07:46.749Z,36.77
2018-05-06T12:09:39.981Z,37.39
2018-05-06T12:10:39.967Z,37.07
2018-05-06T12:12:32.980Z,37.55
2018-05-06T12:13:32.923Z,37.58
2018-05-06T12:15:25.789Z,35.70
2018-05-06T12:16:25.785Z,36.42
2018-05-06T12:18:18.874Z,35.88
2018-05-06T12:19:18.689Z,36.58
2018-05-06T12:21:11.688Z,37.11
2018-05-06T12:22:11.676Z,37.33
2018-05-06T12:24:04.724Z,36.88
2018-05-06T12:25:04.678Z,35.76
2018-05-06T12:26:57.717Z,36.17
2018-05-06T12:27:57.691Z,36.72
2018-05-06T12:29:50.698Z,37.01
2018-05-06T12:30:50.662Z,37.17
2018-05-06T12:32:43.963Z,37.70
2018-05-06T12:33:43.917Z,37.75
2018-05-06T12:35:36.750Z,37.93
2018-05-06T12:36:36.723Z,38.06
2018-05-06T12:38:29.745Z,36.02
2018-05-06T12:39:29.716Z,35.90
2018-05-06T12:41:22.822Z,33.98
2018-05-06T12:42:22.630Z,34.30
2018-05-06T12:44:17.095Z,35.76
2018-05-06T12:45:15.445Z,34.71
2018-05-06T12:47:08.481Z,32.64
2018-05-06T12:48:08.471Z,32.71
2018-05-06T12:50:01.336Z,31.66
2018-05-06T12:51:01.287Z,32.46
2018-05-06T12:52:54.328Z,32.97
2018-05-06T12:53:54.162Z,33.74
2018-05-06T12:55:47.027Z,33.23
2018-05-06T12:56:46.970Z,33.79
2018-05-06T12:58:40.011Z,34.61
2018-05-06T12:59:39.963Z,35.18
2018-05-06T13:01:33.165Z,35.39
2018-05-06T13:02:33.141Z,35.82
2018-05-06T13:04:26.151Z,36.20
2018-05-06T13:05:26.195Z,36.05
2018-05-06T13:07:19.306Z,35.41
2018-05-06T13:08:19.291Z,35.24
2018-05-06T13:10:12.291Z,33.27
2018-05-06T13:11:12.246Z,33.47
2018-05-06T13:13:05.241Z,34.73
2018-05-06T13:14:05.235Z,35.00
2018-05-06T13:15:58.215Z,35.11
2018-05-06T13:16:58.077Z,35.07
2018-05-06T13:18:51.066Z,35.12
2018-05-06T13:19:51.055Z,35.58
2018-05-06T13:21:44.032Z,36.01
2018-05-06T13:22:44.025Z,36.21
2018-05-06T13:24:37.102Z,35.53
2018-05-06T13:25:37.047Z,33.74
2018-05-06T13:27:30.067Z,32.49
2018-05-06T13:28:30.027Z,32.27
2018-05-06T13:30:23.516Z,32.55
2018-05-06T13:31:23.298Z,33.52
2018-05-06T13:33:16.310Z,34.70
2018-05-06T13:34:16.272Z,33.84
2018-05-06T13:36:09.126Z,33.65
2018-05-06T13:37:09.105Z,33.08
2018-05-06T13:39:02.158Z,34.03
2018-05-06T13:40:02.142Z,34.66
2018-05-06T13:41:55.166Z,35.46
2018-05-06T13:42:55.133Z,35.67
2018-05-06T13:44:50.117Z,36.05
2018-05-06T13:45:48.255Z,36.14
2018-05-06T13:47:41.234Z,36.14
2018-05-06T13:48:41.220Z,35.74
2018-05-06T13:50:34.094Z,35.67
2018-05-06T13:51:34.128Z,35.78
2018-05-06T13:53:27.243Z,34.95
2018-05-06T13:54:27.207Z,33.62
2018-05-06T13:56:20.216Z,32.59
2018-05-06T13:57:20.249Z,32.59
2018-05-06T13:59:13.400Z,33.05
2018-05-06T14:00:13.358Z,32.65
2018-05-06T14:02:06.342Z,33.92
2018-05-06T14:03:06.323Z,34.25
2018-05-06T14:04:59.289Z,34.99
2018-05-06T14:05:59.272Z,35.44
2018-05-06T14:07:52.374Z,35.64
2018-05-06T14:08:52.296Z,35.17
2018-05-06T14:10:45.321Z,33.83
2018-05-06T14:11:45.287Z,34.24
2018-05-06T14:13:38.188Z,33.45
2018-05-06T14:14:38.130Z,32.53
2018-05-06T14:16:31.187Z,33.14
2018-05-06T14:17:30.998Z,33.84
2018-05-06T14:19:23.964Z,34.54
2018-05-06T14:20:23.946Z,34.90
2018-05-06T14:22:16.837Z,35.33
2018-05-06T14:23:16.902Z,34.97
2018-05-06T14:25:09.606Z,35.37
2018-05-06T14:26:09.603Z,34.83
2018-05-06T14:28:02.605Z,34.55
2018-05-06T14:29:02.451Z,34.45
2018-05-06T14:30:55.444Z,34.17
2018-05-06T14:31:55.438Z,34.02
2018-05-06T14:33:48.432Z,34.66
2018-05-06T14:34:48.410Z,34.85
2018-05-06T14:36:41.256Z,35.02
2018-05-06T14:37:41.252Z,35.39
2018-05-06T14:39:34.261Z,34.50
2018-05-06T14:40:34.221Z,33.90
2018-05-06T14:42:27.209Z,33.43
2018-05-06T14:43:27.160Z,34.05
2018-05-06T14:45:20.410Z,34.81
2018-05-06T14:46:20.369Z,35.05
2018-05-06T14:48:13.352Z,34.89
2018-05-06T14:49:13.459Z,34.27
2018-05-06T14:51:06.601Z,34.81
2018-05-06T14:52:06.464Z,35.02
2018-05-06T14:53:59.657Z,34.52
2018-05-06T14:54:59.677Z,34.71
2018-05-06T14:56:52.813Z,34.52
2018-05-06T14:57:52.750Z,34.88
2018-05-06T14:59:45.758Z,35.51
2018-05-06T15:00:45.699Z,35.53
2018-05-06T15:02:38.882Z,35.45
2018-05-06T15:03:38.861Z,34.51
2018-05-06T15:05:31.734Z,33.83
2018-05-06T15:06:31.680Z,34.01
2018-05-06T15:08:24.733Z,33.07
2018-05-06T15:09:24.720Z,32.68
2018-05-06T15:11:17.933Z,32.67
2018-05-06T15:12:17.869Z,33.02
2018-05-06T15:14:10.933Z,34.11
2018-05-06T15:15:10.941Z,33.67
2018-05-06T15:17:04.069Z,33.14
2018-05-06T15:18:04.053Z,33.09
2018-05-06T15:19:57.095Z,34.14
2018-05-06T15:20:57.041Z,34.01
2018-05-06T15:22:50.149Z,33.64
2018-05-06T15:23:50.118Z,33.59
2018-05-06T15:25:43.034Z,34.48
2018-05-06T15:26:42.934Z,34.61
2018-05-06T15:28:36.002Z,34.95
2018-05-06T15:29:35.983Z,35.11
2018-05-06T15:31:28.841Z,35.33
2018-05-06T15:32:28.773Z,35.51
2018-05-06T15:34:21.905Z,35.79
2018-05-06T15:35:21.688Z,35.63
2018-05-06T15:37:14.705Z,35.23
2018-05-06T15:38:14.650Z,35.56
2018-05-06T15:40:07.487Z,35.61
2018-05-06T15:41:07.557Z,35.79
2018-05-06T15:43:00.667Z,36.18
2018-05-06T15:44:00.619Z,36.16
2018-05-06T15:45:53.634Z,36.21
2018-05-06T15:46:53.617Z,36.35
2018-05-06T15:48:46.596Z,36.28
2018-05-06T15:49:46.564Z,36.40
2018-05-06T15:51:39.487Z,36.49
2018-05-06T15:52:39.379Z,36.43
2018-05-06T15:54:32.396Z,36.12
2018-05-06T15:55:32.373Z,36.28
2018-05-06T15:57:25.400Z,35.90
2018-05-06T15:58:25.358Z,36.01
2018-05-06T16:00:18.495Z,36.25
2018-05-06T16:01:18.448Z,36.40
2018-05-06T16:03:11.423Z,36.59
2018-05-06T16:04:11.484Z,36.57
2018-05-06T16:06:04.269Z,36.55
2018-05-06T16:07:04.251Z,36.68
2018-05-06T16:08:57.318Z,36.49
2018-05-06T16:09:57.268Z,36.47
2018-05-06T16:11:50.260Z,36.51
2018-05-06T16:12:50.325Z,36.55
2018-05-06T16:14:43.071Z,36.65
2018-05-06T16:15:43.052Z,36.64
2018-05-06T16:17:36.072Z,36.45
2018-05-06T16:18:35.922Z,36.20
2018-05-06T16:20:28.940Z,35.73
2018-05-06T16:21:28.925Z,35.61
2018-05-06T16:23:21.950Z,35.42
2018-05-06T16:24:21.941Z,35.48
2018-05-06T16:26:15.032Z,35.61
2018-05-06T16:27:14.988Z,35.61
2018-05-06T16:29:07.958Z,35.53
2018-05-06T16:30:08.081Z,35.48
2018-05-06T16:32:01.255Z,35.05
2018-05-06T16:33:01.110Z,35.07
2018-05-06T16:34:53.943Z,34.96
2018-05-06T16:35:53.920Z,34.97
2018-05-06T16:37:46.974Z,34.71
2018-05-06T16:38:46.882Z,34.64
2018-05-06T16:40:40.152Z,34.40
2018-05-06T16:41:40.010Z,33.90
2018-05-06T16:43:33.042Z,33.40
2018-05-06T16:44:33.089Z,33.40
2018-05-06T16:46:26.074Z,33.45
2018-05-06T16:47:26.016Z,33.62
2018-05-06T16:49:19.019Z,33.67
2018-05-06T16:50:18.969Z,33.53
2018-05-06T16:52:11.982Z,33.24
2018-05-06T16:53:12.015Z,33.04
2018-05-06T16:55:05.258Z,33.08
2018-05-06T16:56:05.225Z,33.09
2018-05-06T16:57:58.220Z,32.97
2018-05-06T16:58:58.235Z,32.89
2018-05-06T17:00:51.385Z,32.92
2018-05-06T17:01:51.353Z,32.73
2018-05-06T17:03:44.456Z,32.55
2018-05-06T17:04:44.437Z,32.55
2018-05-06T17:06:37.628Z,32.41
2018-05-06T17:07:37.571Z,32.40
2018-05-06T17:09:30.582Z,32.30
2018-05-06T17:10:30.668Z,32.12
2018-05-06T17:12:23.520Z,31.06
2018-05-06T17:13:23.469Z,30.94
2018-05-06T17:15:16.523Z,30.94
2018-05-06T17:16:16.287Z,30.88
2018-05-06T17:18:09.147Z,31.00
2018-05-06T17:19:09.100Z,30.96
2018-05-06T17:21:02.065Z,30.91
2018-05-06T17:22:02.093Z,30.84
2018-05-06T17:23:55.333Z,30.97
2018-05-06T17:24:55.176Z,30.84
2018-05-06T17:26:48.143Z,30.81
2018-05-06T17:27:48.132Z,30.75
2018-05-06T17:29:41.141Z,30.55
2018-05-06T17:30:41.093Z,30.43
2018-05-06T17:32:34.206Z,30.24
2018-05-06T17:33:34.124Z,30.12
2018-05-06T17:35:27.148Z,29.90
2018-05-06T17:36:27.170Z,29.87
2018-05-06T17:38:20.353Z,29.73
2018-05-06T17:39:20.221Z,29.53
2018-05-06T17:41:13.213Z,29.56
2018-05-06T17:42:13.161Z,29.51
2018-05-06T17:44:05.982Z,29.31
2018-05-06T17:45:06.057Z,29.23
2018-05-06T17:46:59.293Z,29.16
2018-05-06T17:47:59.118Z,29.14
2018-05-06T17:49:52.121Z,29.01
2018-05-06T17:50:52.075Z,28.88
2018-05-06T17:52:45.069Z,28.74
2018-05-06T17:53:45.019Z,28.69
2018-05-06T17:55:37.874Z,28.49
2018-05-06T17:56:37.814Z,28.44
2018-05-06T17:58:30.825Z,28.20
2018-05-06T17:59:30.789Z,28.04
2018-05-06T18:01:23.832Z,28.00
2018-05-06T18:02:23.817Z,27.85
2018-05-06T18:04:17.002Z,27.60
2018-05-06T18:05:16.919Z,27.59
2018-05-06T18:07:09.954Z,27.44
2018-05-06T18:08:09.988Z,27.27
2018-05-06T18:10:03.192Z,27.32
2018-05-06T18:11:03.030Z,27.08
2018-05-06T18:12:56.048Z,26.95
2018-05-06T18:13:56.015Z,26.83
2018-05-06T18:15:48.847Z,26.78
2018-05-06T18:16:48.797Z,26.74
2018-05-06T18:18:42.047Z,26.56
2018-05-06T18:19:41.942Z,26.55
2018-05-06T18:21:34.913Z,26.44
2018-05-06T18:22:34.965Z,26.29
2018-05-06T18:24:27.694Z,26.21
2018-05-06T18:25:27.752Z,26.22
2018-05-06T18:27:20.606Z,26.00
2018-05-06T18:28:20.466Z,25.88
2018-05-06T18:30:13.322Z,25.78
2018-05-06T18:31:13.279Z,25.68
2018-05-06T18:33:06.266Z,25.53